sensor_id;sensor_type;location;lat;lon;timestamp;temperature;humidity
5621;DHT22;2832;50.864;12.186;2023-12-29T00:00:40;12.00;99.90
5621;DHT22;2832;50.864;12.186;2023-12-29T00:03:08;11.90;99.90
5621;DHT22;2832;50.864;12.186;2023-12-29T00:05:39;12.00;99.90
5621;DHT22;2832;50.864;12.186;2023-12-29T00:08:07;12.00;99.90
5621;DHT22;2832;50.864;12.186;2023-12-29T00:10:41;11.90;99.90
5621;DHT22;2832;50.864;12.186;2023-12-29T00:13:13;12.00;99.90
5621;DHT22;2832;50.864;12.186;2023-12-29T00:15:51;12.00;99.90
5621;DHT22;2832;50.864;12.186;2023-12-29T00:18:25;12.00;99.90
5621;DHT22;2832;50.864;12.186;2023-12-29T00:20:56;12.00;99.90
5621;DHT22;2832;50.864;12.186;2023-12-29T00:23:23;12.00;99.90
5621;DHT22;2832;50.864;12.186;2023-12-29T00:25:52;12.00;99.90
5621;DHT22;2832;50.864;12.186;2023-12-29T00:28:22;12.00;99.90
5621;DHT22;2832;50.864;12.186;2023-12-29T00:30:56;11.90;99.90
5621;DHT22;2832;50.864;12.186;2023-12-29T00:33:32;11.90;99.90
5621;DHT22;2832;50.864;12.186;2023-12-29T00:36:01;11.90;99.90
5621;DHT22;2832;50.864;12.186;2023-12-29T00:38:29;11.90;99.90
5621;DHT22;2832;50.864;12.186;2023-12-29T00:40:58;11.90;99.90
5621;DHT22;2832;50.864;12.186;2023-12-29T00:43:31;11.90;99.90
5621;DHT22;2832;50.864;12.186;2023-12-29T00:46:01;11.90;99.90
5621;DHT22;2832;50.864;12.186;2023-12-29T00:48:29;11.90;99.90
5621;DHT22;2832;50.864;12.186;2023-12-29T00:51:04;12.00;99.90
5621;DHT22;2832;50.864;12.186;2023-12-29T00:53:34;11.90;99.90
5621;DHT22;2832;50.864;12.186;2023-12-29T00:56:02;11.90;99.90
5621;DHT22;2832;50.864;12.186;2023-12-29T00:58:32;12.00;99.90
5621;DHT22;2832;50.864;12.186;2023-12-29T01:01:02;12.00;99.90
5621;DHT22;2832;50.864;12.186;2023-12-29T01:03:30;12.00;99.90
5621;DHT22;2832;50.864;12.186;2023-12-29T01:05:58;12.00;99.90
5621;DHT22;2832;50.864;12.186;2023-12-29T01:08:26;12.00;99.90
5621;DHT22;2832;50.864;12.186;2023-12-29T01:10:54;12.00;99.90
5621;DHT22;2832;50.864;12.186;2023-12-29T01:13:23;11.90;99.90
5621;DHT22;2832;50.864;12.186;2023-12-29T01:15:55;11.90;99.90
5621;DHT22;2832;50.864;12.186;2023-12-29T01:18:29;11.90;99.90
5621;DHT22;2832;50.864;12.186;2023-12-29T01:20:57;11.90;99.90
5621;DHT22;2832;50.864;12.186;2023-12-29T01:23:24;11.90;99.90
5621;DHT22;2832;50.864;12.186;2023-12-29T01:25:52;11.90;99.90
5621;DHT22;2832;50.864;12.186;2023-12-29T01:28:25;11.80;99.90
5621;DHT22;2832;50.864;12.186;2023-12-29T01:30:55;11.80;99.90
5621;DHT22;2832;50.864;12.186;2023-12-29T01:33:25;11.80;99.90
5621;DHT22;2832;50.864;12.186;2023-12-29T01:35:55;11.80;99.90
5621;DHT22;2832;50.864;12.186;2023-12-29T01:38:23;11.80;99.90
5621;DHT22;2832;50.864;12.186;2023-12-29T01:40:51;11.90;99.90
5621;DHT22;2832;50.864;12.186;2023-12-29T01:43:22;11.90;99.90
5621;DHT22;2832;50.864;12.186;2023-12-29T01:45:51;11.90;99.90
5621;DHT22;2832;50.864;12.186;2023-12-29T01:48:22;11.90;99.90
5621;DHT22;2832;50.864;12.186;2023-12-29T01:50:54;11.90;99.90
5621;DHT22;2832;50.864;12.186;2023-12-29T01:53:23;11.90;99.90
5621;DHT22;2832;50.864;12.186;2023-12-29T01:55:51;11.90;99.90
5621;DHT22;2832;50.864;12.186;2023-12-29T01:58:19;11.90;99.90
5621;DHT22;2832;50.864;12.186;2023-12-29T02:00:48;11.90;99.90
5621;DHT22;2832;50.864;12.186;2023-12-29T02:03:16;11.90;99.90
5621;DHT22;2832;50.864;12.186;2023-12-29T02:05:50;11.90;99.90
5621;DHT22;2832;50.864;12.186;2023-12-29T02:08:17;11.90;99.90
5621;DHT22;2832;50.864;12.186;2023-12-29T02:10:50;11.90;99.90
5621;DHT22;2832;50.864;12.186;2023-12-29T02:13:20;11.80;99.90
5621;DHT22;2832;50.864;12.186;2023-12-29T02:15:51;11.90;99.90
5621;DHT22;2832;50.864;12.186;2023-12-29T02:18:30;11.90;99.90
5621;DHT22;2832;50.864;12.186;2023-12-29T02:21:05;11.90;99.90
5621;DHT22;2832;50.864;12.186;2023-12-29T02:23:33;11.80;99.90
5621;DHT22;2832;50.864;12.186;2023-12-29T02:26:07;11.80;99.90
5621;DHT22;2832;50.864;12.186;2023-12-29T02:28:41;11.80;99.90
5621;DHT22;2832;50.864;12.186;2023-12-29T02:31:16;11.80;99.90
5621;DHT22;2832;50.864;12.186;2023-12-29T02:33:46;11.80;99.90
5621;DHT22;2832;50.864;12.186;2023-12-29T02:36:19;11.80;99.90
5621;DHT22;2832;50.864;12.186;2023-12-29T02:38:48;11.80;99.90
5621;DHT22;2832;50.864;12.186;2023-12-29T02:41:18;11.80;99.90
5621;DHT22;2832;50.864;12.186;2023-12-29T02:43:47;11.90;99.90
5621;DHT22;2832;50.864;12.186;2023-12-29T02:46:20;11.90;99.90
5621;DHT22;2832;50.864;12.186;2023-12-29T02:48:50;11.80;99.90
5621;DHT22;2832;50.864;12.186;2023-12-29T02:51:26;11.80;99.90
5621;DHT22;2832;50.864;12.186;2023-12-29T02:53:54;11.80;99.90
5621;DHT22;2832;50.864;12.186;2023-12-29T02:56:31;11.80;99.90
5621;DHT22;2832;50.864;12.186;2023-12-29T02:58:59;11.80;99.90
5621;DHT22;2832;50.864;12.186;2023-12-29T03:01:29;11.80;99.90
5621;DHT22;2832;50.864;12.186;2023-12-29T03:04:17;11.80;99.90
5621;DHT22;2832;50.864;12.186;2023-12-29T03:06:47;11.80;99.90
5621;DHT22;2832;50.864;12.186;2023-12-29T03:09:18;11.80;99.90
5621;DHT22;2832;50.864;12.186;2023-12-29T03:11:51;11.80;99.90
5621;DHT22;2832;50.864;12.186;2023-12-29T03:14:21;11.80;99.90
5621;DHT22;2832;50.864;12.186;2023-12-29T03:16:49;11.80;99.90
5621;DHT22;2832;50.864;12.186;2023-12-29T03:19:18;11.80;99.90
5621;DHT22;2832;50.864;12.186;2023-12-29T03:21:46;11.70;99.90
5621;DHT22;2832;50.864;12.186;2023-12-29T03:24:13;11.70;99.90
5621;DHT22;2832;50.864;12.186;2023-12-29T03:26:41;11.70;99.90
5621;DHT22;2832;50.864;12.186;2023-12-29T03:29:12;11.70;99.90
5621;DHT22;2832;50.864;12.186;2023-12-29T03:31:40;11.70;99.90
5621;DHT22;2832;50.864;12.186;2023-12-29T03:34:08;11.70;99.90
5621;DHT22;2832;50.864;12.186;2023-12-29T03:36:36;11.70;99.90
5621;DHT22;2832;50.864;12.186;2023-12-29T03:39:04;11.80;99.90
5621;DHT22;2832;50.864;12.186;2023-12-29T03:41:32;11.80;99.90
5621;DHT22;2832;50.864;12.186;2023-12-29T03:44:00;11.80;99.90
5621;DHT22;2832;50.864;12.186;2023-12-29T03:46:29;11.70;99.90
5621;DHT22;2832;50.864;12.186;2023-12-29T03:48:57;11.80;99.90
5621;DHT22;2832;50.864;12.186;2023-12-29T03:51:27;11.80;99.90
5621;DHT22;2832;50.864;12.186;2023-12-29T03:53:57;11.80;99.90
5621;DHT22;2832;50.864;12.186;2023-12-29T03:56:25;11.80;99.90
5621;DHT22;2832;50.864;12.186;2023-12-29T03:58:53;11.80;99.90
5621;DHT22;2832;50.864;12.186;2023-12-29T04:01:21;11.70;99.90
5621;DHT22;2832;50.864;12.186;2023-12-29T04:03:50;11.80;99.90
5621;DHT22;2832;50.864;12.186;2023-12-29T04:06:19;11.80;99.90
5621;DHT22;2832;50.864;12.186;2023-12-29T04:08:52;11.80;99.90
5621;DHT22;2832;50.864;12.186;2023-12-29T04:11:25;11.80;99.90
5621;DHT22;2832;50.864;12.186;2023-12-29T04:13:54;11.70;99.90
5621;DHT22;2832;50.864;12.186;2023-12-29T04:16:23;11.70;99.90
5621;DHT22;2832;50.864;12.186;2023-12-29T04:18:58;11.70;99.90
5621;DHT22;2832;50.864;12.186;2023-12-29T04:21:27;11.70;99.90
5621;DHT22;2832;50.864;12.186;2023-12-29T04:24:04;11.80;99.90
5621;DHT22;2832;50.864;12.186;2023-12-29T04:26:39;11.80;99.90
5621;DHT22;2832;50.864;12.186;2023-12-29T04:29:06;11.70;99.90
5621;DHT22;2832;50.864;12.186;2023-12-29T04:31:35;11.70;99.90
5621;DHT22;2832;50.864;12.186;2023-12-29T04:34:04;11.70;99.90
5621;DHT22;2832;50.864;12.186;2023-12-29T04:36:32;11.70;99.90
5621;DHT22;2832;50.864;12.186;2023-12-29T04:38:59;11.70;99.90
5621;DHT22;2832;50.864;12.186;2023-12-29T04:41:28;11.70;99.90
5621;DHT22;2832;50.864;12.186;2023-12-29T04:43:58;11.70;99.90
5621;DHT22;2832;50.864;12.186;2023-12-29T04:46:26;11.70;99.90
5621;DHT22;2832;50.864;12.186;2023-12-29T04:48:54;11.70;99.90
5621;DHT22;2832;50.864;12.186;2023-12-29T04:51:27;11.80;99.90
5621;DHT22;2832;50.864;12.186;2023-12-29T04:53:59;11.80;99.90
5621;DHT22;2832;50.864;12.186;2023-12-29T04:56:27;11.90;99.90
5621;DHT22;2832;50.864;12.186;2023-12-29T04:58:59;11.80;99.90
5621;DHT22;2832;50.864;12.186;2023-12-29T05:01:29;11.80;99.90
5621;DHT22;2832;50.864;12.186;2023-12-29T05:03:58;11.80;99.90
5621;DHT22;2832;50.864;12.186;2023-12-29T05:06:27;11.70;99.90
5621;DHT22;2832;50.864;12.186;2023-12-29T05:08:58;11.70;99.90
5621;DHT22;2832;50.864;12.186;2023-12-29T05:11:25;11.70;99.90
5621;DHT22;2832;50.864;12.186;2023-12-29T05:13:56;11.80;99.90
5621;DHT22;2832;50.864;12.186;2023-12-29T05:16:24;11.70;99.90
5621;DHT22;2832;50.864;12.186;2023-12-29T05:18:52;11.70;99.90
5621;DHT22;2832;50.864;12.186;2023-12-29T05:21:20;11.70;99.90
5621;DHT22;2832;50.864;12.186;2023-12-29T05:23:51;11.60;99.90
5621;DHT22;2832;50.864;12.186;2023-12-29T05:26:19;11.70;99.90
5621;DHT22;2832;50.864;12.186;2023-12-29T05:28:48;11.70;99.90
5621;DHT22;2832;50.864;12.186;2023-12-29T05:31:32;11.70;99.90
5621;DHT22;2832;50.864;12.186;2023-12-29T05:34:00;11.70;99.90
5621;DHT22;2832;50.864;12.186;2023-12-29T05:36:46;11.70;99.90
5621;DHT22;2832;50.864;12.186;2023-12-29T05:39:18;11.60;99.90
5621;DHT22;2832;50.864;12.186;2023-12-29T05:41:45;11.70;99.90
5621;DHT22;2832;50.864;12.186;2023-12-29T05:44:14;11.70;99.90
5621;DHT22;2832;50.864;12.186;2023-12-29T05:46:51;11.70;99.90
5621;DHT22;2832;50.864;12.186;2023-12-29T05:49:26;11.70;99.90
5621;DHT22;2832;50.864;12.186;2023-12-29T05:51:58;11.70;99.90
5621;DHT22;2832;50.864;12.186;2023-12-29T05:54:28;11.70;99.90
5621;DHT22;2832;50.864;12.186;2023-12-29T05:56:55;11.70;99.90
5621;DHT22;2832;50.864;12.186;2023-12-29T05:59:32;11.80;99.90
5621;DHT22;2832;50.864;12.186;2023-12-29T06:02:01;11.80;99.90
5621;DHT22;2832;50.864;12.186;2023-12-29T06:04:29;11.80;99.90
5621;DHT22;2832;50.864;12.186;2023-12-29T06:07:00;11.70;99.90
5621;DHT22;2832;50.864;12.186;2023-12-29T06:09:32;11.70;99.90
5621;DHT22;2832;50.864;12.186;2023-12-29T06:12:00;11.70;99.90
5621;DHT22;2832;50.864;12.186;2023-12-29T06:14:32;11.70;99.90
5621;DHT22;2832;50.864;12.186;2023-12-29T06:17:19;11.60;99.90
5621;DHT22;2832;50.864;12.186;2023-12-29T06:19:48;11.60;99.90
5621;DHT22;2832;50.864;12.186;2023-12-29T06:22:23;11.60;99.90
5621;DHT22;2832;50.864;12.186;2023-12-29T06:24:52;11.60;99.90
5621;DHT22;2832;50.864;12.186;2023-12-29T06:27:20;11.60;99.90
5621;DHT22;2832;50.864;12.186;2023-12-29T06:29:50;11.60;99.90
5621;DHT22;2832;50.864;12.186;2023-12-29T06:32:18;11.60;99.90
5621;DHT22;2832;50.864;12.186;2023-12-29T06:34:49;11.50;99.90
5621;DHT22;2832;50.864;12.186;2023-12-29T06:37:16;11.50;99.90
5621;DHT22;2832;50.864;12.186;2023-12-29T06:39:44;11.60;99.90
5621;DHT22;2832;50.864;12.186;2023-12-29T06:42:17;11.60;99.90
5621;DHT22;2832;50.864;12.186;2023-12-29T06:44:46;11.60;99.90
5621;DHT22;2832;50.864;12.186;2023-12-29T06:47:15;11.60;99.90
5621;DHT22;2832;50.864;12.186;2023-12-29T06:49:44;11.70;99.90
5621;DHT22;2832;50.864;12.186;2023-12-29T06:52:12;11.70;99.90
5621;DHT22;2832;50.864;12.186;2023-12-29T06:54:41;11.70;99.90
5621;DHT22;2832;50.864;12.186;2023-12-29T06:57:10;11.70;99.90
5621;DHT22;2832;50.864;12.186;2023-12-29T06:59:44;11.70;99.90
5621;DHT22;2832;50.864;12.186;2023-12-29T07:02:13;11.60;99.90
5621;DHT22;2832;50.864;12.186;2023-12-29T07:04:44;11.60;99.90
5621;DHT22;2832;50.864;12.186;2023-12-29T07:07:12;11.60;99.90
5621;DHT22;2832;50.864;12.186;2023-12-29T07:09:41;11.60;99.90
5621;DHT22;2832;50.864;12.186;2023-12-29T07:12:12;11.70;99.90
5621;DHT22;2832;50.864;12.186;2023-12-29T07:14:41;11.60;99.90
5621;DHT22;2832;50.864;12.186;2023-12-29T07:20:09;11.70;99.90
5621;DHT22;2832;50.864;12.186;2023-12-29T07:22:38;11.60;99.90
5621;DHT22;2832;50.864;12.186;2023-12-29T07:25:08;11.60;99.90
5621;DHT22;2832;50.864;12.186;2023-12-29T07:27:37;11.70;99.90
5621;DHT22;2832;50.864;12.186;2023-12-29T07:30:08;11.70;99.90
5621;DHT22;2832;50.864;12.186;2023-12-29T07:32:40;11.70;99.90
5621;DHT22;2832;50.864;12.186;2023-12-29T07:35:10;11.70;99.90
5621;DHT22;2832;50.864;12.186;2023-12-29T07:37:41;11.60;99.90
5621;DHT22;2832;50.864;12.186;2023-12-29T07:40:25;11.60;99.90
5621;DHT22;2832;50.864;12.186;2023-12-29T07:43:07;11.60;99.90
5621;DHT22;2832;50.864;12.186;2023-12-29T07:45:48;11.60;99.90
5621;DHT22;2832;50.864;12.186;2023-12-29T07:48:20;11.60;99.90
5621;DHT22;2832;50.864;12.186;2023-12-29T07:50:50;11.70;99.90
5621;DHT22;2832;50.864;12.186;2023-12-29T07:53:19;11.70;99.90
5621;DHT22;2832;50.864;12.186;2023-12-29T07:56:01;11.70;99.90
5621;DHT22;2832;50.864;12.186;2023-12-29T07:58:44;11.70;99.90
5621;DHT22;2832;50.864;12.186;2023-12-29T08:01:13;11.70;99.90
5621;DHT22;2832;50.864;12.186;2023-12-29T08:03:43;11.70;99.90
5621;DHT22;2832;50.864;12.186;2023-12-29T08:06:24;11.70;99.90
5621;DHT22;2832;50.864;12.186;2023-12-29T08:09:04;11.70;99.90
5621;DHT22;2832;50.864;12.186;2023-12-29T08:11:36;11.60;99.90
5621;DHT22;2832;50.864;12.186;2023-12-29T08:14:19;11.70;99.90
5621;DHT22;2832;50.864;12.186;2023-12-29T08:17:00;11.60;99.90
5621;DHT22;2832;50.864;12.186;2023-12-29T08:19:33;11.60;99.90
5621;DHT22;2832;50.864;12.186;2023-12-29T08:22:13;11.60;99.90
5621;DHT22;2832;50.864;12.186;2023-12-29T08:24:59;11.60;99.90
5621;DHT22;2832;50.864;12.186;2023-12-29T08:27:40;11.60;99.90
5621;DHT22;2832;50.864;12.186;2023-12-29T08:30:12;11.60;99.90
5621;DHT22;2832;50.864;12.186;2023-12-29T08:32:58;11.70;99.90
5621;DHT22;2832;50.864;12.186;2023-12-29T08:35:28;11.60;99.90
5621;DHT22;2832;50.864;12.186;2023-12-29T08:37:56;11.60;99.90
5621;DHT22;2832;50.864;12.186;2023-12-29T08:40:35;11.60;99.90
5621;DHT22;2832;50.864;12.186;2023-12-29T08:43:03;11.60;99.90
5621;DHT22;2832;50.864;12.186;2023-12-29T08:45:33;11.70;99.90
5621;DHT22;2832;50.864;12.186;2023-12-29T08:48:08;11.70;99.90
5621;DHT22;2832;50.864;12.186;2023-12-29T08:51:04;11.70;99.90
5621;DHT22;2832;50.864;12.186;2023-12-29T08:53:35;11.70;99.90
5621;DHT22;2832;50.864;12.186;2023-12-29T08:56:14;11.70;99.90
5621;DHT22;2832;50.864;12.186;2023-12-29T08:58:48;11.80;99.90
5621;DHT22;2832;50.864;12.186;2023-12-29T09:01:16;11.80;99.90
5621;DHT22;2832;50.864;12.186;2023-12-29T09:03:47;11.70;99.90
5621;DHT22;2832;50.864;12.186;2023-12-29T09:06:26;11.70;99.90
5621;DHT22;2832;50.864;12.186;2023-12-29T09:09:00;11.70;99.90
5621;DHT22;2832;50.864;12.186;2023-12-29T09:11:36;11.70;99.90
5621;DHT22;2832;50.864;12.186;2023-12-29T09:14:07;11.60;99.90
5621;DHT22;2832;50.864;12.186;2023-12-29T09:16:58;11.70;99.90
5621;DHT22;2832;50.864;12.186;2023-12-29T09:19:30;11.70;99.90
5621;DHT22;2832;50.864;12.186;2023-12-29T09:22:01;11.70;99.90
5621;DHT22;2832;50.864;12.186;2023-12-29T09:24:32;11.70;99.90
5621;DHT22;2832;50.864;12.186;2023-12-29T09:27:01;11.60;99.90
5621;DHT22;2832;50.864;12.186;2023-12-29T09:29:38;11.60;99.90
5621;DHT22;2832;50.864;12.186;2023-12-29T09:32:21;11.60;99.90
5621;DHT22;2832;50.864;12.186;2023-12-29T09:34:48;11.60;99.90
5621;DHT22;2832;50.864;12.186;2023-12-29T09:37:30;11.60;99.90
5621;DHT22;2832;50.864;12.186;2023-12-29T09:40:04;11.50;99.90
5621;DHT22;2832;50.864;12.186;2023-12-29T09:42:52;11.60;99.90
5621;DHT22;2832;50.864;12.186;2023-12-29T09:45:23;11.50;99.90
5621;DHT22;2832;50.864;12.186;2023-12-29T09:48:01;11.50;99.90
5621;DHT22;2832;50.864;12.186;2023-12-29T09:50:31;11.50;99.90
5621;DHT22;2832;50.864;12.186;2023-12-29T09:53:06;11.50;99.90
5621;DHT22;2832;50.864;12.186;2023-12-29T09:55:34;11.50;99.90
5621;DHT22;2832;50.864;12.186;2023-12-29T09:58:12;11.50;99.90
5621;DHT22;2832;50.864;12.186;2023-12-29T10:00:43;11.60;99.90
5621;DHT22;2832;50.864;12.186;2023-12-29T10:03:12;11.60;99.90
5621;DHT22;2832;50.864;12.186;2023-12-29T10:05:42;11.60;99.90
5621;DHT22;2832;50.864;12.186;2023-12-29T10:08:12;11.60;99.90
5621;DHT22;2832;50.864;12.186;2023-12-29T10:10:43;11.60;99.90
5621;DHT22;2832;50.864;12.186;2023-12-29T10:13:14;11.70;99.90
5621;DHT22;2832;50.864;12.186;2023-12-29T10:16:04;11.70;99.90
5621;DHT22;2832;50.864;12.186;2023-12-29T10:18:58;11.80;99.90
5621;DHT22;2832;50.864;12.186;2023-12-29T10:21:29;11.80;99.90
5621;DHT22;2832;50.864;12.186;2023-12-29T10:24:09;11.70;99.90
5621;DHT22;2832;50.864;12.186;2023-12-29T10:26:38;11.70;99.90
5621;DHT22;2832;50.864;12.186;2023-12-29T10:29:10;11.70;99.90
5621;DHT22;2832;50.864;12.186;2023-12-29T10:31:40;11.70;99.90
5621;DHT22;2832;50.864;12.186;2023-12-29T10:34:20;11.70;99.90
5621;DHT22;2832;50.864;12.186;2023-12-29T10:36:59;11.70;99.90
5621;DHT22;2832;50.864;12.186;2023-12-29T10:39:31;11.70;99.90
5621;DHT22;2832;50.864;12.186;2023-12-29T10:42:08;11.70;99.90
5621;DHT22;2832;50.864;12.186;2023-12-29T10:44:40;11.70;99.90
5621;DHT22;2832;50.864;12.186;2023-12-29T10:47:08;11.70;99.90
5621;DHT22;2832;50.864;12.186;2023-12-29T10:49:38;11.70;99.90
5621;DHT22;2832;50.864;12.186;2023-12-29T10:52:13;11.70;99.90
5621;DHT22;2832;50.864;12.186;2023-12-29T10:55:06;11.70;99.90
5621;DHT22;2832;50.864;12.186;2023-12-29T10:57:35;11.70;99.90
5621;DHT22;2832;50.864;12.186;2023-12-29T11:00:29;11.70;99.90
5621;DHT22;2832;50.864;12.186;2023-12-29T11:02:59;11.80;99.90
5621;DHT22;2832;50.864;12.186;2023-12-29T11:05:30;11.70;99.90
5621;DHT22;2832;50.864;12.186;2023-12-29T11:08:15;11.70;99.90
5621;DHT22;2832;50.864;12.186;2023-12-29T11:11:03;11.70;99.90
5621;DHT22;2832;50.864;12.186;2023-12-29T11:13:46;11.70;99.90
5621;DHT22;2832;50.864;12.186;2023-12-29T11:16:36;11.80;99.90
5621;DHT22;2832;50.864;12.186;2023-12-29T11:19:08;11.80;99.90
5621;DHT22;2832;50.864;12.186;2023-12-29T11:21:53;11.70;99.90
5621;DHT22;2832;50.864;12.186;2023-12-29T11:24:31;11.70;99.90
5621;DHT22;2832;50.864;12.186;2023-12-29T11:27:23;11.70;99.90
5621;DHT22;2832;50.864;12.186;2023-12-29T11:30:15;11.70;99.90
5621;DHT22;2832;50.864;12.186;2023-12-29T11:32:51;11.70;99.90
5621;DHT22;2832;50.864;12.186;2023-12-29T11:35:30;11.70;99.90
5621;DHT22;2832;50.864;12.186;2023-12-29T11:38:44;11.70;99.90
5621;DHT22;2832;50.864;12.186;2023-12-29T11:41:38;11.80;99.90
5621;DHT22;2832;50.864;12.186;2023-12-29T11:44:27;11.80;99.90
5621;DHT22;2832;50.864;12.186;2023-12-29T11:47:36;11.70;99.90
5621;DHT22;2832;50.864;12.186;2023-12-29T11:50:28;11.70;99.90
5621;DHT22;2832;50.864;12.186;2023-12-29T11:52:57;11.70;99.90
5621;DHT22;2832;50.864;12.186;2023-12-29T11:55:32;11.70;99.90
5621;DHT22;2832;50.864;12.186;2023-12-29T11:58:02;11.80;99.90
5621;DHT22;2832;50.864;12.186;2023-12-29T12:00:45;11.80;99.90
5621;DHT22;2832;50.864;12.186;2023-12-29T12:03:40;11.90;99.90
5621;DHT22;2832;50.864;12.186;2023-12-29T12:06:37;11.90;99.90
5621;DHT22;2832;50.864;12.186;2023-12-29T12:09:31;11.90;99.90
5621;DHT22;2832;50.864;12.186;2023-12-29T12:12:04;11.90;99.90
5621;DHT22;2832;50.864;12.186;2023-12-29T12:14:48;11.90;99.90
5621;DHT22;2832;50.864;12.186;2023-12-29T12:17:30;11.90;99.90
5621;DHT22;2832;50.864;12.186;2023-12-29T12:20:03;12.00;99.90
5621;DHT22;2832;50.864;12.186;2023-12-29T12:23:01;11.90;99.90
5621;DHT22;2832;50.864;12.186;2023-12-29T12:25:35;11.90;99.90
5621;DHT22;2832;50.864;12.186;2023-12-29T12:28:07;12.00;99.90
5621;DHT22;2832;50.864;12.186;2023-12-29T12:30:39;12.00;99.90
5621;DHT22;2832;50.864;12.186;2023-12-29T12:33:29;12.00;99.90
5621;DHT22;2832;50.864;12.186;2023-12-29T12:36:12;11.90;99.90
5621;DHT22;2832;50.864;12.186;2023-12-29T12:38:50;12.00;99.90
5621;DHT22;2832;50.864;12.186;2023-12-29T12:41:26;12.00;99.90
5621;DHT22;2832;50.864;12.186;2023-12-29T12:44:12;11.90;99.90
5621;DHT22;2832;50.864;12.186;2023-12-29T12:46:50;11.90;99.90
5621;DHT22;2832;50.864;12.186;2023-12-29T12:49:21;12.00;99.90
5621;DHT22;2832;50.864;12.186;2023-12-29T12:51:56;12.00;99.90
5621;DHT22;2832;50.864;12.186;2023-12-29T12:54:27;12.00;99.90
5621;DHT22;2832;50.864;12.186;2023-12-29T12:57:00;12.00;99.90
5621;DHT22;2832;50.864;12.186;2023-12-29T12:59:44;12.00;99.90
5621;DHT22;2832;50.864;12.186;2023-12-29T13:02:14;12.00;99.90
5621;DHT22;2832;50.864;12.186;2023-12-29T13:05:03;12.00;99.90
5621;DHT22;2832;50.864;12.186;2023-12-29T13:07:59;12.00;99.90
5621;DHT22;2832;50.864;12.186;2023-12-29T13:10:29;12.00;99.90
5621;DHT22;2832;50.864;12.186;2023-12-29T13:13:20;12.00;99.90
5621;DHT22;2832;50.864;12.186;2023-12-29T13:15:47;12.00;99.90
5621;DHT22;2832;50.864;12.186;2023-12-29T13:18:31;12.00;99.90
5621;DHT22;2832;50.864;12.186;2023-12-29T13:21:02;12.00;99.90
5621;DHT22;2832;50.864;12.186;2023-12-29T13:23:30;12.00;99.90
5621;DHT22;2832;50.864;12.186;2023-12-29T13:26:06;12.00;99.90
5621;DHT22;2832;50.864;12.186;2023-12-29T13:28:34;12.00;99.90
5621;DHT22;2832;50.864;12.186;2023-12-29T13:31:07;12.00;99.90
5621;DHT22;2832;50.864;12.186;2023-12-29T13:33:57;12.00;99.90
5621;DHT22;2832;50.864;12.186;2023-12-29T13:36:34;12.00;99.90
5621;DHT22;2832;50.864;12.186;2023-12-29T13:39:24;12.00;99.90
5621;DHT22;2832;50.864;12.186;2023-12-29T13:42:17;12.00;99.90
5621;DHT22;2832;50.864;12.186;2023-12-29T13:45:02;12.10;99.90
5621;DHT22;2832;50.864;12.186;2023-12-29T13:47:47;12.10;99.90
5621;DHT22;2832;50.864;12.186;2023-12-29T13:50:22;12.10;99.90
5621;DHT22;2832;50.864;12.186;2023-12-29T13:52:51;12.10;99.90
5621;DHT22;2832;50.864;12.186;2023-12-29T13:55:24;12.10;99.90
5621;DHT22;2832;50.864;12.186;2023-12-29T13:58:09;12.20;99.90
5621;DHT22;2832;50.864;12.186;2023-12-29T14:00:38;12.20;99.90
5621;DHT22;2832;50.864;12.186;2023-12-29T14:03:25;12.20;99.90
5621;DHT22;2832;50.864;12.186;2023-12-29T14:06:19;12.20;99.90
5621;DHT22;2832;50.864;12.186;2023-12-29T14:09:05;12.20;99.90
5621;DHT22;2832;50.864;12.186;2023-12-29T14:11:34;12.20;99.90
5621;DHT22;2832;50.864;12.186;2023-12-29T14:21:46;12.20;99.90
5621;DHT22;2832;50.864;12.186;2023-12-29T14:24:21;12.30;99.90
5621;DHT22;2832;50.864;12.186;2023-12-29T14:26:56;12.30;99.90
5621;DHT22;2832;50.864;12.186;2023-12-29T14:29:28;12.30;99.90
5621;DHT22;2832;50.864;12.186;2023-12-29T14:31:55;12.30;99.90
5621;DHT22;2832;50.864;12.186;2023-12-29T14:34:44;12.30;99.90
5621;DHT22;2832;50.864;12.186;2023-12-29T14:37:20;12.30;99.90
5621;DHT22;2832;50.864;12.186;2023-12-29T14:39:53;12.30;99.90
5621;DHT22;2832;50.864;12.186;2023-12-29T14:42:46;12.30;99.90
5621;DHT22;2832;50.864;12.186;2023-12-29T14:45:27;12.30;99.90
5621;DHT22;2832;50.864;12.186;2023-12-29T14:47:59;12.30;99.90
5621;DHT22;2832;50.864;12.186;2023-12-29T14:50:43;12.30;99.90
5621;DHT22;2832;50.864;12.186;2023-12-29T14:53:15;12.30;99.90
5621;DHT22;2832;50.864;12.186;2023-12-29T14:55:53;12.30;99.90
5621;DHT22;2832;50.864;12.186;2023-12-29T14:58:21;12.30;99.90
5621;DHT22;2832;50.864;12.186;2023-12-29T15:00:52;12.30;99.90
5621;DHT22;2832;50.864;12.186;2023-12-29T15:03:38;12.40;99.90
5621;DHT22;2832;50.864;12.186;2023-12-29T15:06:30;12.40;99.90
5621;DHT22;2832;50.864;12.186;2023-12-29T15:09:10;12.40;99.90
5621;DHT22;2832;50.864;12.186;2023-12-29T15:11:39;12.40;99.90
5621;DHT22;2832;50.864;12.186;2023-12-29T15:14:29;12.40;99.90
5621;DHT22;2832;50.864;12.186;2023-12-29T15:16:58;12.40;99.90
5621;DHT22;2832;50.864;12.186;2023-12-29T15:19:42;12.40;99.90
5621;DHT22;2832;50.864;12.186;2023-12-29T15:22:10;12.40;99.90
5621;DHT22;2832;50.864;12.186;2023-12-29T15:24:54;12.40;99.90
5621;DHT22;2832;50.864;12.186;2023-12-29T15:27:43;12.40;99.90
5621;DHT22;2832;50.864;12.186;2023-12-29T15:30:20;12.40;99.90
5621;DHT22;2832;50.864;12.186;2023-12-29T15:32:48;12.40;99.90
5621;DHT22;2832;50.864;12.186;2023-12-29T15:35:16;12.30;99.90
5621;DHT22;2832;50.864;12.186;2023-12-29T15:37:45;12.40;99.90
5621;DHT22;2832;50.864;12.186;2023-12-29T15:40:19;12.40;99.90
5621;DHT22;2832;50.864;12.186;2023-12-29T15:42:52;12.40;99.90
5621;DHT22;2832;50.864;12.186;2023-12-29T15:45:35;12.40;99.90
5621;DHT22;2832;50.864;12.186;2023-12-29T15:48:20;12.30;99.90
5621;DHT22;2832;50.864;12.186;2023-12-29T15:50:50;12.40;99.90
5621;DHT22;2832;50.864;12.186;2023-12-29T15:53:18;12.30;99.90
5621;DHT22;2832;50.864;12.186;2023-12-29T15:55:47;12.40;99.90
5621;DHT22;2832;50.864;12.186;2023-12-29T15:58:16;12.40;99.90
5621;DHT22;2832;50.864;12.186;2023-12-29T16:00:45;12.40;99.90
5621;DHT22;2832;50.864;12.186;2023-12-29T16:03:12;12.40;99.90
5621;DHT22;2832;50.864;12.186;2023-12-29T16:05:42;12.40;99.90
5621;DHT22;2832;50.864;12.186;2023-12-29T16:08:09;12.40;99.90
5621;DHT22;2832;50.864;12.186;2023-12-29T16:10:52;12.40;99.90
5621;DHT22;2832;50.864;12.186;2023-12-29T16:13:39;12.40;99.90
5621;DHT22;2832;50.864;12.186;2023-12-29T16:16:29;12.40;99.90
5621;DHT22;2832;50.864;12.186;2023-12-29T16:19:08;12.40;99.90
5621;DHT22;2832;50.864;12.186;2023-12-29T16:21:40;12.40;99.90
5621;DHT22;2832;50.864;12.186;2023-12-29T16:24:14;12.40;99.90
5621;DHT22;2832;50.864;12.186;2023-12-29T16:26:51;12.40;99.90
5621;DHT22;2832;50.864;12.186;2023-12-29T16:29:22;12.40;99.90
5621;DHT22;2832;50.864;12.186;2023-12-29T16:32:00;12.40;99.90
5621;DHT22;2832;50.864;12.186;2023-12-29T16:34:33;12.40;99.90
5621;DHT22;2832;50.864;12.186;2023-12-29T16:37:06;12.40;99.90
5621;DHT22;2832;50.864;12.186;2023-12-29T16:39:44;12.40;99.90